Time;durP1;ratioP1;P1;durP2;ratioP2;P2;SDS_P1;SDS_P2;PMS_P1;PMS_P2;Temp;Humidity;BMP_temperature;BMP_pressure;BME280_temperature;BME280_humidity;BME280_pressure;Samples;Min_cycle;Max_cycle;Signal;HPM_P1;HPM_P2
2021/07/04 00:02:05;;;;;;;;;9.00;9.00;;;;;23.48;53.77;100702.00;5058554;28;46945;-82
2021/07/04 00:04:36;;;;;;;;;9.25;8.00;;;;;23.45;53.59;100693.47;5059000;28;46211;-82
2021/07/04 00:07:03;;;;;;;;;9.00;8.00;;;;;23.45;53.52;100690.75;5061952;28;45478;-82
2021/07/04 00:09:28;;;;;;;;;9.75;7.00;;;;;23.44;53.47;100692.63;5062445;28;45456;-82
2021/07/04 00:11:53;;;;;;;;;8.00;7.75;;;;;23.44;53.46;100689.09;5059652;28;48410;-81
2021/07/04 00:14:19;;;;;;;;;7.50;7.50;;;;;23.48;53.85;100695.78;5060692;28;45223;-82
2021/07/04 00:16:46;;;;;;;;;7.25;6.25;;;;;23.52;53.62;100689.00;5059243;28;45222;-81
2021/07/04 00:19:12;;;;;;;;;9.25;8.00;;;;;23.55;53.88;100691.34;5080286;28;45470;-82
2021/07/04 00:21:38;;;;;;;;;12.50;7.25;;;;;23.57;54.55;100686.59;5081754;28;47426;-81
2021/07/04 00:24:04;;;;;;;;;10.00;8.00;;;;;23.54;53.89;100683.44;5082778;28;45485;-82
2021/07/04 00:26:30;;;;;;;;;11.00;8.75;;;;;23.58;53.80;100684.75;5083962;28;45358;-82
2021/07/04 00:28:55;;;;;;;;;9.75;7.00;;;;;23.60;53.60;100675.41;5083700;28;45618;-82
2021/07/04 00:31:20;;;;;;;;;8.75;6.25;;;;;23.57;53.50;100678.50;5086238;28;47088;-82
2021/07/04 00:33:46;;;;;;;;;6.50;6.50;;;;;23.58;54.06;100672.06;5085735;28;45371;-82
2021/07/04 00:36:11;;;;;;;;;9.50;6.50;;;;;23.59;53.46;100665.66;5079591;28;45326;-82
2021/07/04 00:38:37;;;;;;;;;8.00;7.00;;;;;23.61;53.42;100660.06;5063555;28;45280;-82
2021/07/04 00:41:03;;;;;;;;;9.50;7.00;;;;;23.67;53.13;100659.34;5062034;28;48243;-82
2021/07/04 00:43:29;;;;;;;;;8.25;7.25;;;;;23.68;53.32;100661.81;5062044;28;45182;-82
2021/07/04 00:45:55;;;;;;;;;8.25;7.25;;;;;23.68;52.95;100659.13;5062204;28;45259;-82
2021/07/04 00:48:20;;;;;;;;;6.00;6.00;;;;;23.65;53.06;100650.59;5061640;28;45554;-82
2021/07/04 00:50:47;;;;;;;;;7.25;7.00;;;;;23.64;53.17;100657.00;5063842;28;46641;-82
2021/07/04 00:53:14;;;;;;;;;7.50;7.25;;;;;23.61;53.82;100657.38;5064990;28;45402;-82
2021/07/04 00:55:41;;;;;;;;;10.00;8.00;;;;;23.55;53.48;100656.28;5067928;28;45408;-82
2021/07/04 00:58:06;;;;;;;;;8.00;8.00;;;;;23.54;53.10;100656.47;5080702;28;45428;-82
2021/07/04 01:00:34;;;;;;;;;11.00;8.00;;;;;23.49;53.68;100648.94;5062600;28;46288;-82
2021/07/04 01:03:00;;;;;;;;;7.50;5.25;;;;;23.45;54.41;100645.78;5061666;28;45272;-82
2021/07/04 01:05:29;;;;;;;;;9.25;7.00;;;;;23.42;53.65;100646.16;5061711;28;45338;-82
2021/07/04 01:07:55;;;;;;;;;9.50;7.75;;;;;23.39;54.02;100643.03;5062827;28;45423;-80
2021/07/04 01:10:24;;;;;;;;;7.25;6.75;;;;;23.32;53.98;100642.06;5062965;28;46505;-81
2021/07/04 01:12:50;;;;;;;;;7.25;6.00;;;;;23.30;53.65;100641.44;5063109;28;45509;-81
2021/07/04 01:15:17;;;;;;;;;7.25;7.25;;;;;23.31;54.04;100640.44;5066027;28;45337;-82
2021/07/04 01:17:44;;;;;;;;;7.75;7.00;;;;;23.28;54.13;100636.25;5071322;28;45892;-81
2021/07/04 01:20:12;;;;;;;;;8.00;6.50;;;;;23.26;54.25;100634.75;5081831;28;47224;-81
2021/07/04 01:22:40;;;;;;;;;9.00;8.50;;;;;23.25;54.47;100641.16;5081870;28;45367;-81
2021/07/04 01:25:09;;;;;;;;;6.00;6.00;;;;;23.20;54.71;100630.13;5082975;28;45307;-81
2021/07/04 01:27:35;;;;;;;;;8.25;7.00;;;;;23.11;54.93;100624.00;5082891;28;45248;-81
2021/07/04 01:30:03;;;;;;;;;7.75;6.75;;;;;23.09;54.68;100632.28;5082859;28;45477;-81
2021/07/04 01:32:29;;;;;;;;;5.75;5.75;;;;;23.08;54.83;100632.47;5083408;28;45221;-81
2021/07/04 01:34:54;;;;;;;;;8.00;6.25;;;;;23.09;54.82;100634.97;5086225;28;45389;-81
2021/07/04 01:37:19;;;;;;;;;7.25;7.25;;;;;23.04;55.14;100639.22;5075056;28;45178;-81
2021/07/04 01:39:45;;;;;;;;;7.25;7.25;;;;;23.02;55.62;100647.53;5063518;28;45366;-81
2021/07/04 01:42:11;;;;;;;;;8.50;8.00;;;;;22.95;55.19;100643.88;5062869;28;45251;-81
2021/07/04 01:44:36;;;;;;;;;10.75;7.50;;;;;22.91;55.86;100639.06;5076297;28;45241;-81
2021/07/04 01:47:01;;;;;;;;;7.25;7.00;;;;;22.87;55.79;100640.44;5060739;28;45785;-81
2021/07/04 01:49:27;;;;;;;;;7.75;6.75;;;;;22.85;55.94;100634.44;5060743;28;47483;-81
2021/07/04 01:51:53;;;;;;;;;7.00;6.50;;;;;22.77;57.14;100630.78;5062281;28;45559;-81
2021/07/04 01:54:19;;;;;;;;;5.25;5.25;;;;;22.73;56.13;100626.78;5061096;28;45319;-81
2021/07/04 01:56:44;;;;;;;;;5.25;5.25;;;;;22.67;56.74;100618.63;5066734;28;45529;-81
2021/07/04 01:59:10;;;;;;;;;6.50;4.75;;;;;22.66;57.07;100633.94;5065874;28;45410;-81
2021/07/04 02:01:35;;;;;;;;;8.75;6.00;;;;;22.62;57.38;100629.09;5061839;28;45849;-81
2021/07/04 02:04:00;;;;;;;;;5.25;5.25;;;;;22.57;57.53;100628.81;5061103;28;45470;-81
2021/07/04 02:06:26;;;;;;;;;6.00;6.00;;;;;22.52;57.19;100629.34;5060890;28;45645;-81
2021/07/04 02:08:51;;;;;;;;;7.25;7.25;;;;;22.50;57.14;100626.00;5060493;28;47151;-81
2021/07/04 02:11:17;;;;;;;;;5.50;5.50;;;;;22.53;57.19;100627.50;5062164;28;45420;-81
2021/07/04 02:13:42;;;;;;;;;7.00;7.00;;;;;22.57;57.17;100636.88;5060734;28;45327;-81
2021/07/04 02:16:07;;;;;;;;;6.50;6.00;;;;;22.57;57.47;100612.66;5062096;28;45145;-81
2021/07/04 02:18:33;;;;;;;;;7.00;5.25;;;;;22.59;57.37;100616.81;5078896;28;47201;-81
2021/07/04 02:20:58;;;;;;;;;7.75;5.00;;;;;22.60;57.27;100621.19;5084841;28;45933;-81
2021/07/04 02:23:29;;;;;;;;;5.00;4.50;;;;;22.63;57.69;100622.69;5081607;28;45205;-81
2021/07/04 02:25:56;;;;;;;;;7.50;7.50;;;;;22.60;57.92;100620.34;5082272;28;45378;-81
2021/07/04 02:28:24;;;;;;;;;6.25;5.00;;;;;22.58;57.00;100619.72;5081894;28;45340;-81
2021/07/04 02:30:52;;;;;;;;;6.00;6.00;;;;;22.59;57.30;100615.97;5081901;28;45391;-81
2021/07/04 02:33:19;;;;;;;;;7.00;6.00;;;;;22.61;57.41;100616.66;5080266;28;45561;-81
2021/07/04 02:35:48;;;;;;;;;5.25;5.25;;;;;22.64;57.23;100616.28;5081977;28;45362;-81
2021/07/04 02:38:14;;;;;;;;;6.25;6.25;;;;;22.64;57.35;100616.28;5064390;28;45205;-81
2021/07/04 02:40:41;;;;;;;;;7.00;7.00;;;;;22.68;57.58;100609.50;5065709;28;45224;-80
2021/07/04 02:43:08;;;;;;;;;7.50;7.00;;;;;22.68;57.27;100610.34;5061851;28;45279;-81
2021/07/04 02:45:34;;;;;;;;;5.75;5.75;;;;;22.68;57.49;100617.56;5060382;28;45658;-81
2021/07/04 02:47:59;;;;;;;;;7.00;5.25;;;;;22.64;57.32;100614.44;5061006;28;46525;-81
2021/07/04 02:50:25;;;;;;;;;8.75;6.75;;;;;22.67;57.38;100624.81;5061806;28;45244;-81
2021/07/04 02:52:52;;;;;;;;;6.00;5.00;;;;;22.68;57.46;100625.66;5060456;28;45318;-81
2021/07/04 02:55:19;;;;;;;;;10.25;4.75;;;;;22.67;57.16;100618.63;5062354;28;45498;-81
2021/07/04 02:57:45;;;;;;;;;6.25;6.25;;;;;22.70;56.75;100623.59;5077486;28;46096;-81
2021/07/04 03:00:13;;;;;;;;;5.25;5.25;;;;;22.67;57.33;100615.94;5063074;28;45193;-81
2021/07/04 03:02:39;;;;;;;;;6.75;6.00;;;;;22.68;57.32;100614.88;5065410;28;45414;-81
2021/07/04 03:05:06;;;;;;;;;5.00;5.00;;;;;22.65;57.05;100604.50;5064923;28;45493;-81
2021/07/04 03:07:32;;;;;;;;;7.25;6.00;;;;;22.66;56.97;100617.78;5061532;28;46459;-81
2021/07/04 03:09:58;;;;;;;;;8.00;6.00;;;;;22.66;57.44;100611.56;5060177;28;45317;-81
2021/07/04 03:12:23;;;;;;;;;7.00;6.75;;;;;22.63;57.60;100610.06;5059850;28;45189;-81
2021/07/04 03:14:49;;;;;;;;;5.00;5.00;;;;;22.64;57.66;100605.50;5061209;28;45432;-81
2021/07/04 03:17:14;;;;;;;;;8.00;6.25;;;;;22.67;57.55;100608.66;5064574;28;46375;-81
2021/07/04 03:19:40;;;;;;;;;9.00;7.00;;;;;22.67;57.33;100597.09;5081206;28;45779;-81
2021/07/04 03:22:05;;;;;;;;;6.00;6.00;;;;;22.71;57.56;100595.66;5081436;28;45348;-81
2021/07/04 03:24:31;;;;;;;;;8.25;6.75;;;;;22.70;57.08;100592.16;5083467;28;45238;-81
2021/07/04 03:26:56;;;;;;;;;8.75;6.00;;;;;22.70;57.33;100584.06;5066421;28;45334;-81
2021/07/04 03:29:25;;;;;;;;;10.50;6.00;;;;;22.69;57.40;100582.38;5060224;28;45402;-81
2021/07/04 03:31:53;;;;;;;;;7.25;4.50;;;;;22.68;57.36;100583.41;5061031;28;45361;-80
2021/07/04 03:34:18;;;;;;;;;7.75;6.00;;;;;22.74;57.23;100587.22;5060875;28;45394;-81
2021/07/04 03:36:46;;;;;;;;;7.75;7.75;;;;;22.74;57.29;100587.22;5060447;28;46420;-81
2021/07/04 03:39:11;;;;;;;;;9.25;6.25;;;;;22.70;57.74;100584.06;5060593;28;45243;-81
2021/07/04 03:41:43;;;;;;;;;4.75;4.00;;;;;22.60;57.83;100582.66;5060887;28;45164;-81
2021/07/04 03:44:12;;;;;;;;;9.00;6.00;;;;;22.54;57.75;100588.81;5060960;28;45465;-81
2021/07/04 03:46:46;;;;;;;;;7.00;5.00;;;;;22.58;58.07;100603.56;5074241;28;47225;-81
2021/07/04 03:49:14;;;;;;;;;7.50;6.50;;;;;22.56;58.64;100608.31;5062030;28;45241;-81
2021/07/04 03:51:42;;;;;;;;;9.75;8.00;;;;;22.41;64.13;100613.66;5062281;28;45436;-81
2021/07/04 03:54:10;;;;;;;;;10.50;7.50;;;;;22.13;78.23;100621.47;5060390;28;45558;-81
2021/07/04 03:56:53;;;;;;;;;21.00;11.00;;;;;-143.39;100.00;63593.47;4898279;28;19812413;-89
2021/07/04 03:59:33;;;;;;;;;5.50;5.25;;;;;-143.39;100.00;63593.47;4633562;28;8858353;-91
2021/07/04 04:02:01;;;;;;;;;7.00;7.00;;;;;-143.39;100.00;63593.47;5106976;28;8801;-89
2021/07/04 04:12:39;;;;;;;;;;;;;;;-143.39;100.00;63593.47;704858;28;276225359;-86
2021/07/04 04:15:09;;;;;;;;;8.00;5.00;;;;;-143.39;100.00;63593.47;4743944;28;9667935;-86
2021/07/04 04:17:50;;;;;;;;;5.00;5.00;;;;;-143.39;100.00;63593.47;5096972;28;43086;-85
2021/07/04 04:20:16;;;;;;;;;7.50;3.25;;;;;-143.39;100.00;63593.47;5119187;28;9329;-86
2021/07/04 04:22:41;;;;;;;;;5.25;2.75;;;;;-143.39;100.00;63593.47;5121318;28;8815;-85
2021/07/04 04:25:08;;;;;;;;;3.50;2.00;;;;;-143.39;100.00;63593.47;5088383;28;45409;-85
2021/07/04 04:27:33;;;;;;;;;13.25;8.00;;;;;-143.39;100.00;63593.47;5086706;27;45322;-86
2021/07/04 04:29:59;;;;;;;;;12.50;7.50;;;;;-143.39;100.00;63593.47;5070136;28;45534;-86
2021/07/04 04:32:25;;;;;;;;;7.00;6.50;;;;;-143.39;100.00;63593.47;5065343;28;45361;-86
2021/07/04 04:34:50;;;;;;;;;8.75;5.50;;;;;-143.39;100.00;63593.47;5062993;28;45220;-85
2021/07/04 04:37:16;;;;;;;;;8.75;5.00;;;;;-143.39;100.00;63593.47;5060510;28;45285;-84
2021/07/04 04:39:42;;;;;;;;;6.75;5.00;;;;;-143.39;100.00;63593.47;5059408;28;45272;-86
2021/07/04 04:42:07;;;;;;;;;9.75;5.00;;;;;-143.39;100.00;63593.47;5060906;28;45311;-86
2021/07/04 04:44:34;;;;;;;;;7.75;5.75;;;;;-143.39;100.00;63593.47;5059299;28;45219;-86
2021/07/04 04:47:00;;;;;;;;;4.25;4.25;;;;;-143.39;100.00;63593.47;5059379;28;45465;-86
2021/07/04 04:49:25;;;;;;;;;6.25;4.75;;;;;-143.39;100.00;63593.47;5060653;28;45370;-86
2021/07/04 04:51:50;;;;;;;;;6.00;3.00;;;;;-143.39;100.00;63593.47;5060767;28;47972;-86
2021/07/04 04:54:16;;;;;;;;;4.25;4.25;;;;;-143.39;100.00;63593.47;5062199;28;45493;-86
2021/07/04 04:56:41;;;;;;;;;8.50;4.25;;;;;-143.39;100.00;63593.47;5064674;28;45536;-86
2021/07/04 04:59:07;;;;;;;;;6.50;4.75;;;;;-143.39;100.00;63593.47;5062363;28;45346;-86
2021/07/04 05:01:32;;;;;;;;;4.25;4.00;;;;;-143.39;100.00;63593.47;5061718;28;48353;-86
2021/07/04 05:03:58;;;;;;;;;5.50;4.00;;;;;-143.39;100.00;63593.47;5060132;28;45386;-86
2021/07/04 05:06:23;;;;;;;;;4.50;4.50;;;;;-143.39;100.00;63593.47;5061610;28;45321;-86
2021/07/04 05:08:49;;;;;;;;;10.50;7.00;;;;;-143.39;100.00;63593.47;5063195;28;45612;-86
2021/07/04 05:11:15;;;;;;;;;10.75;6.25;;;;;-143.39;100.00;63593.47;5074767;28;45252;-86
2021/07/04 05:13:40;;;;;;;;;9.75;6.50;;;;;-143.39;100.00;63593.47;5083758;28;45267;-86
2021/07/04 05:16:07;;;;;;;;;7.50;5.25;;;;;-143.39;100.00;63593.47;5069520;28;45191;-86
2021/07/04 05:18:33;;;;;;;;;8.00;6.25;;;;;-143.39;100.00;63593.47;5069801;28;45534;-86
2021/07/04 05:21:00;;;;;;;;;6.50;5.00;;;;;-143.39;100.00;63593.47;5087443;28;45416;-86
2021/07/04 05:23:25;;;;;;;;;4.75;4.75;;;;;-143.39;100.00;63593.47;5071188;28;45987;-84
2021/07/04 05:25:53;;;;;;;;;6.00;5.00;;;;;-143.39;100.00;63593.47;5068201;28;45282;-87
2021/07/04 05:28:19;;;;;;;;;7.75;5.25;;;;;-143.39;100.00;63593.47;5067910;28;45437;-87
2021/07/04 05:30:45;;;;;;;;;5.00;5.00;;;;;-143.39;100.00;63593.47;5086545;28;47542;-87
2021/07/04 05:33:10;;;;;;;;;7.50;5.25;;;;;-143.39;100.00;63593.47;5083920;28;45243;-87
2021/07/04 05:35:35;;;;;;;;;8.00;5.00;;;;;-143.39;100.00;63593.47;5087624;28;45211;-87
2021/07/04 05:38:01;;;;;;;;;4.25;4.25;;;;;-143.39;100.00;63593.47;5067921;28;45375;-87
2021/07/04 05:40:26;;;;;;;;;6.50;6.50;;;;;-143.39;100.00;63593.47;5067123;28;45283;-87
2021/07/04 05:42:53;;;;;;;;;6.50;6.00;;;;;-143.39;100.00;63593.47;5061856;28;45253;-86
2021/07/04 05:45:26;;;;;;;;;11.00;6.00;;;;;-143.39;100.00;63593.47;5072649;28;45449;-86
2021/07/04 05:47:52;;;;;;;;;9.25;9.00;;;;;-143.39;100.00;63593.47;5061128;28;45942;-85
2021/07/04 05:50:18;;;;;;;;;7.25;5.50;;;;;-143.39;100.00;63593.47;5071423;28;47120;-86
2021/07/04 05:52:45;;;;;;;;;6.25;6.00;;;;;-143.39;100.00;63593.47;5077959;28;45489;-85
2021/07/04 05:55:12;;;;;;;;;6.75;6.75;;;;;-143.39;100.00;63593.47;5065432;28;45399;-86
2021/07/04 05:57:38;;;;;;;;;4.75;4.75;;;;;-143.39;100.00;63593.47;5069042;28;45217;-85
2021/07/04 06:00:06;;;;;;;;;7.25;5.00;;;;;-143.39;100.00;63593.47;5065958;28;45307;-85
2021/07/04 06:02:31;;;;;;;;;4.75;4.25;;;;;-143.39;100.00;63593.47;5064402;28;45345;-86
2021/07/04 06:04:57;;;;;;;;;6.00;6.00;;;;;-143.39;100.00;63593.47;5061011;28;45348;-86
2021/07/04 06:07:22;;;;;;;;;9.50;6.00;;;;;-143.39;100.00;63593.47;5062039;28;45543;-86
2021/07/04 06:09:47;;;;;;;;;4.25;4.25;;;;;-143.39;100.00;63593.47;5060651;28;47047;-85
2021/07/04 06:12:15;;;;;;;;;6.75;4.75;;;;;-143.39;100.00;63593.47;5062147;28;45370;-85
2021/07/04 06:14:40;;;;;;;;;7.25;5.00;;;;;-143.39;100.00;63593.47;5062338;28;45536;-85
2021/07/04 06:17:06;;;;;;;;;5.00;4.75;;;;;-143.39;100.00;63593.47;5063986;28;45728;-85
2021/07/04 06:19:31;;;;;;;;;10.75;7.50;;;;;-143.39;100.00;63593.47;5085370;28;45504;-84
2021/07/04 06:21:57;;;;;;;;;7.75;4.75;;;;;-143.39;100.00;63593.47;5084260;28;45302;-85
2021/07/04 06:24:22;;;;;;;;;7.00;5.00;;;;;-143.39;100.00;63593.47;5082379;28;45403;-85
2021/07/04 06:26:48;;;;;;;;;8.50;6.00;;;;;-143.39;100.00;63593.47;5080885;28;45963;-86
2021/07/04 06:29:14;;;;;;;;;7.50;5.50;;;;;-143.39;100.00;63593.47;5080592;28;46027;-86
2021/07/04 06:31:40;;;;;;;;;6.00;4.25;;;;;-143.39;100.00;63593.47;5080422;28;45454;-86
2021/07/04 06:34:05;;;;;;;;;6.00;4.50;;;;;-143.39;100.00;63593.47;5082426;28;45263;-87
2021/07/04 06:36:30;;;;;;;;;8.25;5.00;;;;;-143.39;100.00;63593.47;5065756;28;45383;-86
2021/07/04 06:38:56;;;;;;;;;4.00;4.00;;;;;-143.39;100.00;63593.47;5065291;28;45429;-86
2021/07/04 06:41:23;;;;;;;;;6.25;5.00;;;;;-143.39;100.00;63593.47;5065879;28;45354;-85
2021/07/04 06:43:48;;;;;;;;;4.00;4.00;;;;;-143.39;100.00;63593.47;5064062;28;45447;-85
2021/07/04 06:46:15;;;;;;;;;5.50;4.25;;;;;-143.39;100.00;63593.47;5062161;28;45446;-85
2021/07/04 06:48:40;;;;;;;;;4.00;4.00;;;;;-143.39;100.00;63593.47;5061779;28;46195;-84
2021/07/04 06:51:07;;;;;;;;;6.75;5.75;;;;;-143.39;100.00;63593.47;5061535;28;45475;-83
2021/07/04 06:53:32;;;;;;;;;5.25;5.00;;;;;-143.39;100.00;63593.47;5061413;28;45350;-83
2021/07/04 06:55:58;;;;;;;;;7.25;5.75;;;;;-143.39;100.00;63593.47;5064712;28;45449;-83
2021/07/04 06:58:23;;;;;;;;;5.75;5.50;;;;;-143.39;100.00;63593.47;5061081;28;45332;-83
2021/07/04 07:00:49;;;;;;;;;7.25;4.00;;;;;-143.39;100.00;63593.47;5060223;28;45319;-82
2021/07/04 07:03:14;;;;;;;;;6.75;4.00;;;;;-143.39;100.00;63593.47;5062643;28;45302;-83
2021/07/04 07:05:39;;;;;;;;;5.75;3.00;;;;;-143.39;100.00;63593.47;5063559;28;45574;-83
2021/07/04 07:08:05;;;;;;;;;6.00;4.00;;;;;-143.39;100.00;63593.47;5063275;28;45289;-83
2021/07/04 07:10:31;;;;;;;;;6.25;4.50;;;;;-143.39;100.00;63593.47;5059931;28;45932;-83
2021/07/04 07:12:58;;;;;;;;;6.75;5.00;;;;;-143.39;100.00;63593.47;5061433;28;45481;-83
2021/07/04 07:15:23;;;;;;;;;6.75;6.75;;;;;-143.39;100.00;63593.47;5074976;28;45446;-83
2021/07/04 07:17:49;;;;;;;;;6.00;5.50;;;;;-143.39;100.00;63593.47;5070439;28;46065;-83
2021/07/04 07:20:15;;;;;;;;;8.50;5.00;;;;;-143.39;100.00;63593.47;5067684;27;45422;-82
2021/07/04 07:22:40;;;;;;;;;4.00;4.00;;;;;-143.39;100.00;63593.47;5065395;28;45392;-83
2021/07/04 07:25:07;;;;;;;;;5.00;5.00;;;;;-143.39;100.00;63593.47;5063205;28;45303;-83
2021/07/04 07:27:32;;;;;;;;;5.00;4.00;;;;;-143.39;100.00;63593.47;5062807;28;46515;-83
2021/07/04 07:29:58;;;;;;;;;4.00;4.00;;;;;-143.39;100.00;63593.47;5065612;28;45298;-83
2021/07/04 07:32:25;;;;;;;;;7.50;6.00;;;;;-143.39;100.00;63593.47;5064987;28;45260;-83
2021/07/04 07:34:51;;;;;;;;;6.75;5.00;;;;;-143.39;100.00;63593.47;5069161;28;45226;-83
2021/07/04 07:37:16;;;;;;;;;5.75;5.25;;;;;-143.39;100.00;63593.47;5074960;28;45284;-83
2021/07/04 07:39:45;;;;;;;;;6.25;6.00;;;;;-143.39;100.00;63593.47;5080608;28;45263;-82
2021/07/04 07:42:10;;;;;;;;;3.75;3.00;;;;;-143.39;100.00;63593.47;5062085;28;45335;-83
2021/07/04 07:44:36;;;;;;;;;3.00;3.00;;;;;-143.39;100.00;63593.47;5062450;28;45458;-83
2021/07/04 07:47:02;;;;;;;;;4.00;4.00;;;;;-143.39;100.00;63593.47;5063535;28;45378;-83
2021/07/04 07:49:28;;;;;;;;;5.00;5.00;;;;;-143.39;100.00;63593.47;5065114;28;45377;-83
2021/07/04 07:51:54;;;;;;;;;6.00;4.00;;;;;-143.39;100.00;63593.47;5062610;28;45382;-82
2021/07/04 07:54:20;;;;;;;;;3.50;3.50;;;;;-143.39;100.00;63593.47;5061586;28;45400;-83
2021/07/04 07:56:47;;;;;;;;;6.00;5.00;;;;;-143.39;100.00;63593.47;5074353;28;45313;-82
2021/07/04 07:59:12;;;;;;;;;5.50;5.50;;;;;-143.39;100.00;63593.47;5077329;28;45259;-82
2021/07/04 08:01:38;;;;;;;;;5.50;3.50;;;;;-143.39;100.00;63593.47;5063340;28;45261;-82
2021/07/04 08:04:04;;;;;;;;;4.50;4.50;;;;;-143.39;100.00;63593.47;5065728;28;45513;-81
2021/07/04 08:06:29;;;;;;;;;4.75;4.00;;;;;-143.39;100.00;63593.47;5065841;28;45417;-82
2021/07/04 08:08:55;;;;;;;;;4.00;3.00;;;;;-143.39;100.00;63593.47;5064176;28;45290;-82
2021/07/04 08:11:20;;;;;;;;;3.50;2.50;;;;;-143.39;100.00;63593.47;5063955;28;45847;-80
2021/07/04 08:13:46;;;;;;;;;7.00;3.00;;;;;-143.39;100.00;63593.47;5060235;28;45497;-82
2021/07/04 08:16:14;;;;;;;;;5.00;3.50;;;;;-143.39;100.00;63593.47;5061535;28;46020;-82
2021/07/04 08:18:43;;;;;;;;;6.00;4.50;;;;;-143.39;100.00;63593.47;5076132;28;45236;-82
2021/07/04 08:21:09;;;;;;;;;3.25;3.25;;;;;-143.39;100.00;63593.47;5056779;28;45337;-83
2021/07/04 08:23:42;;;;;;;;;4.00;2.00;;;;;-143.39;100.00;63593.47;5060666;28;45354;-82
2021/07/04 08:26:08;;;;;;;;;3.75;3.50;;;;;-143.39;100.00;63593.47;5061790;28;48274;-83
2021/07/04 08:28:33;;;;;;;;;3.00;3.00;;;;;-143.39;100.00;63593.47;5064067;28;45438;-82
2021/07/04 08:30:59;;;;;;;;;6.00;4.50;;;;;-143.39;100.00;63593.47;5063793;28;45476;-83
2021/07/04 08:33:24;;;;;;;;;3.00;3.00;;;;;-143.39;100.00;63593.47;5062747;28;45691;-83
2021/07/04 08:35:50;;;;;;;;;1.25;1.25;;;;;-143.39;100.00;63593.47;5061626;28;47048;-83
2021/07/04 08:38:15;;;;;;;;;3.50;2.00;;;;;-143.39;100.00;63593.47;5061176;28;45649;-81
2021/07/04 08:40:41;;;;;;;;;2.00;2.00;;;;;-143.39;100.00;63593.47;5063066;28;45397;-82
2021/07/04 08:43:06;;;;;;;;;2.00;1.00;;;;;-143.39;100.00;63593.47;5065656;28;45397;-81
2021/07/04 08:45:37;;;;;;;;;2.00;2.00;;;;;-143.39;100.00;63593.47;5067722;28;46339;-82
2021/07/04 08:48:02;;;;;;;;;2.50;2.00;;;;;-143.39;100.00;63593.47;5067273;28;45550;-83
2021/07/04 08:50:34;;;;;;;;;2.00;2.00;;;;;-143.39;100.00;63593.47;5080208;28;45397;-83
2021/07/04 08:53:00;;;;;;;;;2.00;2.00;;;;;-143.39;100.00;63593.47;5070550;28;45540;-82
2021/07/04 08:55:28;;;;;;;;;2.00;2.00;;;;;-143.39;100.00;63593.47;5068149;28;46265;-83
2021/07/04 08:58:01;;;;;;;;;2.50;2.50;;;;;-143.39;100.00;63593.47;5089954;28;45567;-83
2021/07/04 09:00:26;;;;;;;;;2.00;2.00;;;;;-143.39;100.00;63593.47;5066548;28;45320;-81
2021/07/04 09:02:57;;;;;;;;;4.25;2.75;;;;;-143.39;100.00;63593.47;5070191;28;45166;-83
2021/07/04 09:05:23;;;;;;;;;2.50;2.50;;;;;-143.39;100.00;63593.47;5071799;28;47185;-84
2021/07/04 09:07:50;;;;;;;;;2.00;2.00;;;;;-143.39;100.00;63593.47;5065375;28;45353;-83
2021/07/04 09:10:48;;;;;;;;;1.50;1.50;;;;;-143.39;100.00;63593.47;5067128;28;45399;-83
2021/07/04 09:13:30;;;;;;;;;1.25;0.75;;;;;-143.39;100.00;63593.47;5067424;28;46482;-83
2021/07/04 09:16:08;;;;;;;;;1.00;1.00;;;;;-143.39;100.00;63593.47;5070949;28;47466;-83
2021/07/04 09:18:42;;;;;;;;;2.25;1.00;;;;;-143.39;100.00;63593.47;5083313;28;45634;-83
2021/07/04 09:21:17;;;;;;;;;0.00;0.00;;;;;-143.39;100.00;63593.47;5087007;28;45289;-84
2021/07/04 09:23:43;;;;;;;;;0.00;0.00;;;;;-143.39;100.00;63593.47;5086327;28;45464;-84
2021/07/04 09:26:38;;;;;;;;;0.00;0.00;;;;;-143.39;100.00;63593.47;5083941;28;47554;-84
2021/07/04 09:29:04;;;;;;;;;0.00;0.00;;;;;-143.39;100.00;63593.47;5085885;28;45423;-84
2021/07/04 09:31:30;;;;;;;;;0.00;0.00;;;;;-143.39;100.00;63593.47;5087972;28;45385;-84
2021/07/04 09:34:09;;;;;;;;;0.50;0.00;;;;;-143.39;100.00;63593.47;5087399;28;45401;-84
2021/07/04 09:36:36;;;;;;;;;0.00;0.00;;;;;-143.39;100.00;63593.47;5078636;28;45290;-83
2021/07/04 09:39:16;;;;;;;;;1.00;0.75;;;;;-143.39;100.00;63593.47;5064912;28;45284;-83
2021/07/04 09:42:11;;;;;;;;;0.00;0.00;;;;;-143.39;100.00;63593.47;5064348;28;45400;-83
2021/07/04 09:44:39;;;;;;;;;1.75;0.75;;;;;-143.39;100.00;63593.47;5063998;28;45439;-81
2021/07/04 09:47:33;;;;;;;;;0.25;0.00;;;;;-143.39;100.00;63593.47;5063154;28;48086;-84
2021/07/04 09:50:11;;;;;;;;;2.25;0.75;;;;;-143.39;100.00;63593.47;5054685;28;45257;-83
2021/07/04 09:52:36;;;;;;;;;2.00;2.00;;;;;-143.39;100.00;63593.47;5065171;28;45361;-84
2021/07/04 09:55:08;;;;;;;;;1.00;1.00;;;;;-143.39;100.00;63593.47;5065140;28;45857;-82
2021/07/04 09:57:59;;;;;;;;;2.25;1.75;;;;;-143.39;100.00;63593.47;5077833;28;45271;-83
2021/07/04 10:00:30;;;;;;;;;2.50;2.00;;;;;-143.39;100.00;63593.47;5072726;28;45359;-81
2021/07/04 10:03:14;;;;;;;;;3.50;2.00;;;;;-143.39;100.00;63593.47;5078558;28;45244;-83
2021/07/04 10:05:42;;;;;;;;;2.00;2.00;;;;;-143.39;100.00;63593.47;5063184;28;45264;-83
2021/07/04 10:08:34;;;;;;;;;2.25;2.25;;;;;-143.39;100.00;63593.47;5063975;28;45237;-82
2021/07/04 10:11:11;;;;;;;;;2.75;2.75;;;;;-143.39;100.00;63593.47;5063064;28;45185;-83
2021/07/04 10:13:40;;;;;;;;;3.25;2.00;;;;;-143.39;100.00;63593.47;5069500;28;45287;-81
2021/07/04 10:16:06;;;;;;;;;1.00;1.00;;;;;-143.39;100.00;63593.47;5067804;28;45388;-83
2021/07/04 10:18:32;;;;;;;;;1.50;1.50;;;;;-143.39;100.00;63593.47;5080403;28;45559;-83
2021/07/04 10:20:58;;;;;;;;;3.00;2.00;;;;;-143.39;100.00;63593.47;5068330;28;45278;-83
2021/07/04 10:23:26;;;;;;;;;1.00;1.00;;;;;-143.39;100.00;63593.47;5066115;28;45263;-81
2021/07/04 10:25:54;;;;;;;;;0.25;0.25;;;;;-143.39;100.00;63593.47;5081389;28;46429;-81
2021/07/04 10:28:27;;;;;;;;;1.25;1.00;;;;;-143.39;100.00;63593.47;5063384;28;45394;-83
2021/07/04 10:30:53;;;;;;;;;2.00;2.00;;;;;-143.39;100.00;63593.47;5060558;28;45455;-83
2021/07/04 10:33:34;;;;;;;;;1.00;1.00;;;;;-143.39;100.00;63593.47;5074175;28;45534;-83
2021/07/04 10:36:08;;;;;;;;;1.00;1.00;;;;;-143.39;100.00;63593.47;5060942;28;45428;-83
2021/07/04 10:38:45;;;;;;;;;1.25;0.75;;;;;-143.39;100.00;63593.47;5064964;28;45419;-83
2021/07/04 10:41:17;;;;;;;;;0.75;0.75;;;;;-143.39;100.00;63593.47;5060402;28;45376;-83
2021/07/04 10:43:53;;;;;;;;;0.75;0.75;;;;;-143.39;100.00;63593.47;5061806;28;45316;-83
2021/07/04 10:46:44;;;;;;;;;1.50;1.50;;;;;-143.39;100.00;63593.47;5060206;28;45446;-83
2021/07/04 10:49:15;;;;;;;;;3.00;2.00;;;;;-143.39;100.00;63593.47;5061234;28;45443;-83
2021/07/04 10:52:01;;;;;;;;;4.00;2.00;;;;;-143.39;100.00;63593.47;5061759;28;45390;-83
2021/07/04 10:54:38;;;;;;;;;2.00;2.00;;;;;-143.39;100.00;63593.47;5061490;28;45422;-84
2021/07/04 10:57:07;;;;;;;;;0.75;0.75;;;;;-143.39;100.00;63593.47;5064315;28;45492;-83
2021/07/04 10:59:32;;;;;;;;;1.00;1.00;;;;;-143.39;100.00;63593.47;5062839;28;46620;-83
2021/07/04 11:02:00;;;;;;;;;1.00;1.00;;;;;-143.39;100.00;63593.47;5061862;28;45367;-83
2021/07/04 11:04:28;;;;;;;;;1.00;1.00;;;;;-143.39;100.00;63593.47;5061645;28;45428;-83
2021/07/04 11:07:02;;;;;;;;;1.00;1.00;;;;;-143.39;100.00;63593.47;5068191;28;45410;-83
2021/07/04 11:09:55;;;;;;;;;1.50;1.25;;;;;-143.39;100.00;63593.47;5068228;28;46412;-83
2021/07/04 11:12:24;;;;;;;;;2.00;0.50;;;;;-143.39;100.00;63593.47;5081193;27;45371;-84
2021/07/04 11:15:10;;;;;;;;;1.00;1.00;;;;;-143.39;100.00;63593.47;5081945;28;45456;-82
2021/07/04 11:17:55;;;;;;;;;3.00;1.00;;;;;-143.39;100.00;63593.47;5079888;27;45711;-82
2021/07/04 11:20:23;;;;;;;;;2.25;2.00;;;;;-143.39;100.00;63593.47;5082148;28;47332;-83
2021/07/04 11:23:04;;;;;;;;;3.00;1.25;;;;;-143.39;100.00;63593.47;5083039;28;46024;-83
2021/07/04 11:25:45;;;;;;;;;1.00;1.00;;;;;-143.39;100.00;63593.47;5082972;28;45343;-83
2021/07/04 11:28:19;;;;;;;;;3.25;1.50;;;;;-143.39;100.00;63593.47;5081149;28;45389;-83